sensor_id;sensor_type;location;lat;lon;timestamp;P1;durP1;ratioP1;P2;durP2;ratioP2
19482;SDS011;9882;51.166;6.992;2023-06-01T00:00:03;12.45;;;2.88;;
19482;SDS011;9882;51.166;6.992;2023-06-01T00:02:39;7.68;;;3.28;;
19482;SDS011;9882;51.166;6.992;2023-06-01T00:05:08;5.32;;;2.80;;
19482;SDS011;9882;51.166;6.992;2023-06-01T00:07:37;8.88;;;2.78;;
19482;SDS011;9882;51.166;6.992;2023-06-01T00:10:05;7.95;;;2.97;;
19482;SDS011;9882;51.166;6.992;2023-06-01T00:12:35;11.75;;;2.80;;
19482;SDS011;9882;51.166;6.992;2023-06-01T00:15:04;7.57;;;2.78;;
19482;SDS011;9882;51.166;6.992;2023-06-01T00:17:33;6.97;;;2.50;;
19482;SDS011;9882;51.166;6.992;2023-06-01T00:20:02;9.52;;;2.65;;
19482;SDS011;9882;51.166;6.992;2023-06-01T00:22:34;6.43;;;2.90;;
19482;SDS011;9882;51.166;6.992;2023-06-01T00:25:05;6.35;;;2.70;;
19482;SDS011;9882;51.166;6.992;2023-06-01T00:27:36;10.52;;;3.03;;
19482;SDS011;9882;51.166;6.992;2023-06-01T00:30:05;7.70;;;2.90;;
19482;SDS011;9882;51.166;6.992;2023-06-01T00:32:34;7.38;;;3.03;;
19482;SDS011;9882;51.166;6.992;2023-06-01T00:35:03;4.18;;;2.47;;
19482;SDS011;9882;51.166;6.992;2023-06-01T00:37:32;5.20;;;2.72;;
19482;SDS011;9882;51.166;6.992;2023-06-01T00:40:00;5.28;;;2.47;;
19482;SDS011;9882;51.166;6.992;2023-06-01T00:42:29;6.65;;;2.65;;
19482;SDS011;9882;51.166;6.992;2023-06-01T00:44:59;6.53;;;2.70;;
19482;SDS011;9882;51.166;6.992;2023-06-01T00:47:27;7.70;;;2.63;;
19482;SDS011;9882;51.166;6.992;2023-06-01T00:49:56;7.57;;;2.92;;
19482;SDS011;9882;51.166;6.992;2023-06-01T00:52:25;7.38;;;3.10;;
19482;SDS011;9882;51.166;6.992;2023-06-01T00:54:54;11.02;;;2.90;;
19482;SDS011;9882;51.166;6.992;2023-06-01T00:57:22;9.02;;;2.90;;
19482;SDS011;9882;51.166;6.992;2023-06-01T00:59:53;9.30;;;3.13;;
19482;SDS011;9882;51.166;6.992;2023-06-01T01:02:24;8.07;;;2.90;;
19482;SDS011;9882;51.166;6.992;2023-06-01T01:04:52;5.30;;;2.80;;
19482;SDS011;9882;51.166;6.992;2023-06-01T01:07:24;7.35;;;3.50;;
19482;SDS011;9882;51.166;6.992;2023-06-01T01:09:58;9.70;;;2.85;;
19482;SDS011;9882;51.166;6.992;2023-06-01T01:12:36;8.63;;;2.88;;
19482;SDS011;9882;51.166;6.992;2023-06-01T01:15:12;4.60;;;2.47;;
19482;SDS011;9882;51.166;6.992;2023-06-01T01:17:51;9.77;;;3.25;;
19482;SDS011;9882;51.166;6.992;2023-06-01T01:20:28;5.25;;;2.80;;
19482;SDS011;9882;51.166;6.992;2023-06-01T01:23:10;7.03;;;2.80;;
19482;SDS011;9882;51.166;6.992;2023-06-01T01:26:06;6.57;;;2.72;;
19482;SDS011;9882;51.166;6.992;2023-06-01T01:28:41;5.90;;;2.65;;
19482;SDS011;9882;51.166;6.992;2023-06-01T01:31:12;6.93;;;2.63;;
19482;SDS011;9882;51.166;6.992;2023-06-01T01:33:44;7.15;;;2.88;;
19482;SDS011;9882;51.166;6.992;2023-06-01T01:36:15;9.30;;;3.42;;
19482;SDS011;9882;51.166;6.992;2023-06-01T01:38:44;6.95;;;2.60;;
19482;SDS011;9882;51.166;6.992;2023-06-01T01:41:13;8.98;;;2.88;;
19482;SDS011;9882;51.166;6.992;2023-06-01T01:43:43;7.82;;;2.70;;
19482;SDS011;9882;51.166;6.992;2023-06-01T01:46:15;7.10;;;2.85;;
19482;SDS011;9882;51.166;6.992;2023-06-01T01:48:51;6.75;;;2.50;;
19482;SDS011;9882;51.166;6.992;2023-06-01T01:51:27;5.18;;;2.83;;
19482;SDS011;9882;51.166;6.992;2023-06-01T01:54:04;9.35;;;3.17;;
19482;SDS011;9882;51.166;6.992;2023-06-01T01:56:34;7.90;;;2.95;;
19482;SDS011;9882;51.166;6.992;2023-06-01T01:59:05;5.57;;;2.47;;
19482;SDS011;9882;51.166;6.992;2023-06-01T02:01:33;11.63;;;3.70;;
19482;SDS011;9882;51.166;6.992;2023-06-01T02:04:03;9.98;;;2.88;;
19482;SDS011;9882;51.166;6.992;2023-06-01T02:06:35;6.40;;;2.90;;
19482;SDS011;9882;51.166;6.992;2023-06-01T02:09:04;7.68;;;2.90;;
19482;SDS011;9882;51.166;6.992;2023-06-01T02:11:34;5.85;;;2.70;;
19482;SDS011;9882;51.166;6.992;2023-06-01T02:14:05;9.00;;;3.47;;
19482;SDS011;9882;51.166;6.992;2023-06-01T02:16:33;9.25;;;2.60;;
19482;SDS011;9882;51.166;6.992;2023-06-01T02:19:02;10.77;;;3.17;;
19482;SDS011;9882;51.166;6.992;2023-06-01T02:21:31;6.10;;;3.05;;
19482;SDS011;9882;51.166;6.992;2023-06-01T02:24:01;8.43;;;2.92;;
19482;SDS011;9882;51.166;6.992;2023-06-01T02:26:34;7.00;;;2.60;;
19482;SDS011;9882;51.166;6.992;2023-06-01T02:29:02;4.88;;;2.60;;
19482;SDS011;9882;51.166;6.992;2023-06-01T02:31:33;5.93;;;2.72;;
19482;SDS011;9882;51.166;6.992;2023-06-01T02:34:03;7.20;;;2.92;;
19482;SDS011;9882;51.166;6.992;2023-06-01T02:36:31;4.85;;;2.70;;
19482;SDS011;9882;51.166;6.992;2023-06-01T02:39:01;9.18;;;3.75;;
19482;SDS011;9882;51.166;6.992;2023-06-01T02:41:29;4.20;;;2.80;;
19482;SDS011;9882;51.166;6.992;2023-06-01T02:43:58;7.80;;;3.28;;
19482;SDS011;9882;51.166;6.992;2023-06-01T02:46:28;6.97;;;2.65;;
19482;SDS011;9882;51.166;6.992;2023-06-01T02:48:57;4.63;;;2.78;;
19482;SDS011;9882;51.166;6.992;2023-06-01T02:51:25;11.60;;;3.22;;
19482;SDS011;9882;51.166;6.992;2023-06-01T02:54:06;5.22;;;2.80;;
19482;SDS011;9882;51.166;6.992;2023-06-01T02:56:35;7.93;;;3.20;;
19482;SDS011;9882;51.166;6.992;2023-06-01T02:59:12;5.57;;;2.92;;
19482;SDS011;9882;51.166;6.992;2023-06-01T03:01:48;11.05;;;3.22;;
19482;SDS011;9882;51.166;6.992;2023-06-01T03:04:17;10.98;;;3.80;;
19482;SDS011;9882;51.166;6.992;2023-06-01T03:06:45;5.05;;;3.05;;
19482;SDS011;9882;51.166;6.992;2023-06-01T03:09:19;10.55;;;3.33;;
19482;SDS011;9882;51.166;6.992;2023-06-01T03:11:51;7.50;;;3.25;;
19482;SDS011;9882;51.166;6.992;2023-06-01T03:14:21;13.00;;;3.47;;
19482;SDS011;9882;51.166;6.992;2023-06-01T03:16:51;8.90;;;3.35;;
19482;SDS011;9882;51.166;6.992;2023-06-01T03:19:21;11.10;;;3.53;;
19482;SDS011;9882;51.166;6.992;2023-06-01T03:21:53;9.75;;;3.67;;
19482;SDS011;9882;51.166;6.992;2023-06-01T03:24:22;7.90;;;3.50;;
19482;SDS011;9882;51.166;6.992;2023-06-01T03:26:56;9.18;;;3.63;;
19482;SDS011;9882;51.166;6.992;2023-06-01T03:29:27;8.73;;;3.75;;
19482;SDS011;9882;51.166;6.992;2023-06-01T03:31:57;8.55;;;3.42;;
19482;SDS011;9882;51.166;6.992;2023-06-01T03:34:26;9.05;;;3.83;;
19482;SDS011;9882;51.166;6.992;2023-06-01T03:36:56;9.60;;;4.05;;
19482;SDS011;9882;51.166;6.992;2023-06-01T03:39:24;12.48;;;5.30;;
19482;SDS011;9882;51.166;6.992;2023-06-01T03:41:54;11.75;;;4.53;;
19482;SDS011;9882;51.166;6.992;2023-06-01T03:44:22;12.90;;;4.70;;
19482;SDS011;9882;51.166;6.992;2023-06-01T03:46:51;17.02;;;5.03;;
19482;SDS011;9882;51.166;6.992;2023-06-01T03:49:21;12.60;;;4.43;;
19482;SDS011;9882;51.166;6.992;2023-06-01T03:51:50;16.55;;;5.47;;
19482;SDS011;9882;51.166;6.992;2023-06-01T03:54:19;18.38;;;5.30;;
19482;SDS011;9882;51.166;6.992;2023-06-01T03:56:49;11.93;;;4.68;;
19482;SDS011;9882;51.166;6.992;2023-06-01T03:59:18;17.63;;;5.88;;
19482;SDS011;9882;51.166;6.992;2023-06-01T04:01:47;14.77;;;5.45;;
19482;SDS011;9882;51.166;6.992;2023-06-01T04:04:17;16.38;;;5.82;;
19482;SDS011;9882;51.166;6.992;2023-06-01T04:06:48;27.80;;;9.35;;
19482;SDS011;9882;51.166;6.992;2023-06-01T04:09:18;18.55;;;6.18;;
19482;SDS011;9882;51.166;6.992;2023-06-01T04:11:49;26.00;;;8.52;;
19482;SDS011;9882;51.166;6.992;2023-06-01T04:14:18;20.85;;;7.10;;
19482;SDS011;9882;51.166;6.992;2023-06-01T04:16:47;20.00;;;7.30;;
19482;SDS011;9882;51.166;6.992;2023-06-01T04:19:16;24.58;;;9.20;;
19482;SDS011;9882;51.166;6.992;2023-06-01T04:21:53;18.60;;;7.00;;
19482;SDS011;9882;51.166;6.992;2023-06-01T04:24:21;25.90;;;8.70;;
19482;SDS011;9882;51.166;6.992;2023-06-01T04:26:53;26.15;;;8.55;;
19482;SDS011;9882;51.166;6.992;2023-06-01T04:29:23;25.88;;;8.93;;
19482;SDS011;9882;51.166;6.992;2023-06-01T04:31:51;34.65;;;13.07;;
19482;SDS011;9882;51.166;6.992;2023-06-01T04:34:21;27.00;;;9.07;;
19482;SDS011;9882;51.166;6.992;2023-06-01T04:36:52;31.75;;;11.48;;
19482;SDS011;9882;51.166;6.992;2023-06-01T04:39:22;29.15;;;11.32;;
19482;SDS011;9882;51.166;6.992;2023-06-01T04:41:52;36.67;;;14.27;;
19482;SDS011;9882;51.166;6.992;2023-06-01T04:44:22;29.63;;;10.98;;
19482;SDS011;9882;51.166;6.992;2023-06-01T04:46:53;33.35;;;11.65;;
19482;SDS011;9882;51.166;6.992;2023-06-01T04:49:22;34.85;;;14.13;;
19482;SDS011;9882;51.166;6.992;2023-06-01T04:51:56;30.08;;;11.90;;
19482;SDS011;9882;51.166;6.992;2023-06-01T04:54:27;36.67;;;13.93;;
19482;SDS011;9882;51.166;6.992;2023-06-01T04:56:55;30.75;;;11.75;;
19482;SDS011;9882;51.166;6.992;2023-06-01T04:59:24;30.40;;;11.35;;
19482;SDS011;9882;51.166;6.992;2023-06-01T05:01:52;32.30;;;13.25;;
19482;SDS011;9882;51.166;6.992;2023-06-01T05:04:21;28.50;;;11.70;;
19482;SDS011;9882;51.166;6.992;2023-06-01T05:06:50;41.63;;;14.10;;
19482;SDS011;9882;51.166;6.992;2023-06-01T05:09:20;37.50;;;14.98;;
19482;SDS011;9882;51.166;6.992;2023-06-01T05:11:49;38.17;;;13.32;;
19482;SDS011;9882;51.166;6.992;2023-06-01T05:14:17;40.05;;;14.93;;
19482;SDS011;9882;51.166;6.992;2023-06-01T05:16:46;35.42;;;12.82;;
19482;SDS011;9882;51.166;6.992;2023-06-01T05:19:16;38.28;;;14.60;;
19482;SDS011;9882;51.166;6.992;2023-06-01T05:21:45;38.75;;;15.18;;
19482;SDS011;9882;51.166;6.992;2023-06-01T05:24:14;45.92;;;15.15;;
19482;SDS011;9882;51.166;6.992;2023-06-01T05:26:44;37.25;;;14.88;;
19482;SDS011;9882;51.166;6.992;2023-06-01T05:29:13;37.22;;;15.02;;
19482;SDS011;9882;51.166;6.992;2023-06-01T05:31:45;50.63;;;17.38;;
19482;SDS011;9882;51.166;6.992;2023-06-01T05:34:14;41.85;;;15.10;;
19482;SDS011;9882;51.166;6.992;2023-06-01T05:36:42;44.38;;;15.63;;
19482;SDS011;9882;51.166;6.992;2023-06-01T05:39:11;45.80;;;16.13;;
19482;SDS011;9882;51.166;6.992;2023-06-01T05:41:40;37.05;;;15.27;;
19482;SDS011;9882;51.166;6.992;2023-06-01T05:44:10;44.08;;;14.55;;
19482;SDS011;9882;51.166;6.992;2023-06-01T05:46:39;37.55;;;13.90;;
19482;SDS011;9882;51.166;6.992;2023-06-01T05:49:08;41.58;;;16.08;;
19482;SDS011;9882;51.166;6.992;2023-06-01T05:51:36;49.17;;;16.60;;
19482;SDS011;9882;51.166;6.992;2023-06-01T05:54:07;42.00;;;17.80;;
19482;SDS011;9882;51.166;6.992;2023-06-01T05:56:36;34.72;;;13.70;;
19482;SDS011;9882;51.166;6.992;2023-06-01T05:59:07;34.70;;;13.85;;
19482;SDS011;9882;51.166;6.992;2023-06-01T06:01:38;40.70;;;17.88;;
19482;SDS011;9882;51.166;6.992;2023-06-01T06:04:07;39.38;;;15.60;;
19482;SDS011;9882;51.166;6.992;2023-06-01T06:06:35;62.58;;;18.67;;
19482;SDS011;9882;51.166;6.992;2023-06-01T06:09:04;49.33;;;18.88;;
19482;SDS011;9882;51.166;6.992;2023-06-01T06:11:32;53.38;;;19.50;;
19482;SDS011;9882;51.166;6.992;2023-06-01T06:14:01;42.10;;;17.63;;
19482;SDS011;9882;51.166;6.992;2023-06-01T06:16:30;45.15;;;18.98;;
19482;SDS011;9882;51.166;6.992;2023-06-01T06:18:59;48.72;;;20.10;;
19482;SDS011;9882;51.166;6.992;2023-06-01T06:21:28;53.33;;;20.80;;
19482;SDS011;9882;51.166;6.992;2023-06-01T06:23:58;52.03;;;20.75;;
19482;SDS011;9882;51.166;6.992;2023-06-01T06:26:26;51.33;;;20.13;;
19482;SDS011;9882;51.166;6.992;2023-06-01T06:28:55;49.28;;;19.38;;
19482;SDS011;9882;51.166;6.992;2023-06-01T06:31:23;48.47;;;21.20;;
19482;SDS011;9882;51.166;6.992;2023-06-01T06:33:52;51.72;;;20.85;;
19482;SDS011;9882;51.166;6.992;2023-06-01T06:36:22;53.55;;;20.55;;
19482;SDS011;9882;51.166;6.992;2023-06-01T06:38:51;46.70;;;19.65;;
19482;SDS011;9882;51.166;6.992;2023-06-01T06:41:19;45.75;;;19.80;;
19482;SDS011;9882;51.166;6.992;2023-06-01T06:43:52;45.53;;;20.15;;
19482;SDS011;9882;51.166;6.992;2023-06-01T06:46:21;45.60;;;18.52;;
19482;SDS011;9882;51.166;6.992;2023-06-01T06:48:49;54.17;;;20.50;;
19482;SDS011;9882;51.166;6.992;2023-06-01T06:51:18;52.92;;;20.50;;
19482;SDS011;9882;51.166;6.992;2023-06-01T06:53:49;47.85;;;18.55;;
19482;SDS011;9882;51.166;6.992;2023-06-01T06:56:17;51.85;;;21.45;;
19482;SDS011;9882;51.166;6.992;2023-06-01T06:58:47;52.03;;;18.58;;
19482;SDS011;9882;51.166;6.992;2023-06-01T07:01:22;51.00;;;19.55;;
19482;SDS011;9882;51.166;6.992;2023-06-01T07:03:51;45.13;;;18.42;;
19482;SDS011;9882;51.166;6.992;2023-06-01T07:06:20;52.67;;;17.88;;
19482;SDS011;9882;51.166;6.992;2023-06-01T07:08:50;48.13;;;18.33;;
19482;SDS011;9882;51.166;6.992;2023-06-01T07:11:19;49.35;;;17.92;;
19482;SDS011;9882;51.166;6.992;2023-06-01T07:13:49;48.00;;;17.70;;
19482;SDS011;9882;51.166;6.992;2023-06-01T07:16:17;45.45;;;18.83;;
19482;SDS011;9882;51.166;6.992;2023-06-01T07:18:46;46.88;;;18.45;;
19482;SDS011;9882;51.166;6.992;2023-06-01T07:21:14;54.25;;;17.48;;
19482;SDS011;9882;51.166;6.992;2023-06-01T07:23:43;56.55;;;17.73;;
19482;SDS011;9882;51.166;6.992;2023-06-01T07:26:13;44.30;;;17.48;;
19482;SDS011;9882;51.166;6.992;2023-06-01T07:28:42;44.75;;;17.40;;
19482;SDS011;9882;51.166;6.992;2023-06-01T07:31:10;51.97;;;18.17;;
19482;SDS011;9882;51.166;6.992;2023-06-01T07:33:39;45.75;;;15.52;;
19482;SDS011;9882;51.166;6.992;2023-06-01T07:36:07;47.22;;;16.20;;
19482;SDS011;9882;51.166;6.992;2023-06-01T07:38:36;38.13;;;15.23;;
19482;SDS011;9882;51.166;6.992;2023-06-01T07:41:08;43.67;;;15.90;;
19482;SDS011;9882;51.166;6.992;2023-06-01T07:43:39;39.60;;;17.63;;
19482;SDS011;9882;51.166;6.992;2023-06-01T07:46:07;43.15;;;17.58;;
19482;SDS011;9882;51.166;6.992;2023-06-01T07:48:36;41.00;;;15.25;;
19482;SDS011;9882;51.166;6.992;2023-06-01T07:51:05;46.35;;;17.27;;
19482;SDS011;9882;51.166;6.992;2023-06-01T07:53:34;42.42;;;17.00;;
19482;SDS011;9882;51.166;6.992;2023-06-01T07:56:03;43.55;;;17.85;;
19482;SDS011;9882;51.166;6.992;2023-06-01T07:58:32;44.10;;;17.42;;
19482;SDS011;9882;51.166;6.992;2023-06-01T08:01:02;46.83;;;16.77;;
19482;SDS011;9882;51.166;6.992;2023-06-01T08:03:31;43.78;;;17.67;;
19482;SDS011;9882;51.166;6.992;2023-06-01T08:06:00;42.10;;;15.23;;
19482;SDS011;9882;51.166;6.992;2023-06-01T08:08:31;56.15;;;18.27;;
19482;SDS011;9882;51.166;6.992;2023-06-01T08:11:00;42.35;;;15.27;;
19482;SDS011;9882;51.166;6.992;2023-06-01T08:13:29;37.83;;;14.88;;
19482;SDS011;9882;51.166;6.992;2023-06-01T08:15:57;41.80;;;15.20;;
19482;SDS011;9882;51.166;6.992;2023-06-01T08:18:27;41.53;;;17.05;;
19482;SDS011;9882;51.166;6.992;2023-06-01T08:20:56;47.22;;;17.77;;
19482;SDS011;9882;51.166;6.992;2023-06-01T08:23:27;52.47;;;18.38;;
19482;SDS011;9882;51.166;6.992;2023-06-01T08:25:55;42.10;;;16.27;;
19482;SDS011;9882;51.166;6.992;2023-06-01T08:28:24;39.20;;;15.93;;
19482;SDS011;9882;51.166;6.992;2023-06-01T08:30:53;38.63;;;17.30;;
19482;SDS011;9882;51.166;6.992;2023-06-01T08:33:21;39.45;;;15.95;;
19482;SDS011;9882;51.166;6.992;2023-06-01T08:35:51;36.67;;;15.82;;
19482;SDS011;9882;51.166;6.992;2023-06-01T08:38:20;34.95;;;14.50;;
19482;SDS011;9882;51.166;6.992;2023-06-01T08:40:49;58.08;;;16.95;;
19482;SDS011;9882;51.166;6.992;2023-06-01T08:43:18;37.15;;;15.30;;
19482;SDS011;9882;51.166;6.992;2023-06-01T08:45:48;43.70;;;14.13;;
19482;SDS011;9882;51.166;6.992;2023-06-01T08:48:18;44.78;;;14.45;;
19482;SDS011;9882;51.166;6.992;2023-06-01T08:50:49;41.22;;;14.85;;
19482;SDS011;9882;51.166;6.992;2023-06-01T08:53:20;31.63;;;12.95;;
19482;SDS011;9882;51.166;6.992;2023-06-01T08:55:52;42.22;;;14.63;;
19482;SDS011;9882;51.166;6.992;2023-06-01T08:58:22;31.13;;;13.07;;
19482;SDS011;9882;51.166;6.992;2023-06-01T09:00:51;36.13;;;12.60;;
19482;SDS011;9882;51.166;6.992;2023-06-01T09:03:22;34.97;;;12.15;;
19482;SDS011;9882;51.166;6.992;2023-06-01T09:05:52;32.55;;;12.02;;
19482;SDS011;9882;51.166;6.992;2023-06-01T09:08:21;32.95;;;12.73;;
19482;SDS011;9882;51.166;6.992;2023-06-01T09:10:52;37.10;;;11.93;;
19482;SDS011;9882;51.166;6.992;2023-06-01T09:13:31;30.75;;;10.68;;
19482;SDS011;9882;51.166;6.992;2023-06-01T09:16:00;28.50;;;10.57;;
19482;SDS011;9882;51.166;6.992;2023-06-01T09:18:29;27.85;;;10.50;;
19482;SDS011;9882;51.166;6.992;2023-06-01T09:21:10;24.02;;;8.75;;
19482;SDS011;9882;51.166;6.992;2023-06-01T09:23:39;26.85;;;10.35;;
19482;SDS011;9882;51.166;6.992;2023-06-01T09:26:10;25.25;;;9.57;;
19482;SDS011;9882;51.166;6.992;2023-06-01T09:28:55;22.35;;;9.13;;
19482;SDS011;9882;51.166;6.992;2023-06-01T09:31:34;26.60;;;9.50;;
19482;SDS011;9882;51.166;6.992;2023-06-01T09:34:04;27.85;;;9.32;;
19482;SDS011;9882;51.166;6.992;2023-06-01T09:36:35;31.73;;;9.20;;
19482;SDS011;9882;51.166;6.992;2023-06-01T09:39:04;26.10;;;8.80;;
19482;SDS011;9882;51.166;6.992;2023-06-01T09:41:45;22.77;;;8.35;;
19482;SDS011;9882;51.166;6.992;2023-06-01T09:44:21;29.08;;;8.77;;
19482;SDS011;9882;51.166;6.992;2023-06-01T09:46:52;22.05;;;7.90;;
19482;SDS011;9882;51.166;6.992;2023-06-01T09:49:22;23.77;;;8.30;;
19482;SDS011;9882;51.166;6.992;2023-06-01T09:52:07;28.05;;;8.43;;
19482;SDS011;9882;51.166;6.992;2023-06-01T09:54:39;26.77;;;8.95;;
19482;SDS011;9882;51.166;6.992;2023-06-01T09:57:10;29.15;;;9.55;;
19482;SDS011;9882;51.166;6.992;2023-06-01T09:59:40;26.40;;;8.73;;
19482;SDS011;9882;51.166;6.992;2023-06-01T10:02:11;30.73;;;9.18;;
19482;SDS011;9882;51.166;6.992;2023-06-01T10:04:42;27.50;;;9.63;;
19482;SDS011;9882;51.166;6.992;2023-06-01T10:07:16;25.60;;;8.40;;
19482;SDS011;9882;51.166;6.992;2023-06-01T10:09:48;26.17;;;8.43;;
19482;SDS011;9882;51.166;6.992;2023-06-01T10:12:21;26.00;;;8.93;;
19482;SDS011;9882;51.166;6.992;2023-06-01T10:14:50;20.55;;;7.85;;
19482;SDS011;9882;51.166;6.992;2023-06-01T10:17:19;22.80;;;7.60;;
19482;SDS011;9882;51.166;6.992;2023-06-01T10:19:48;31.15;;;8.95;;
19482;SDS011;9882;51.166;6.992;2023-06-01T10:22:18;30.25;;;9.18;;
19482;SDS011;9882;51.166;6.992;2023-06-01T10:24:47;27.30;;;9.15;;
19482;SDS011;9882;51.166;6.992;2023-06-01T10:27:17;27.00;;;8.45;;
19482;SDS011;9882;51.166;6.992;2023-06-01T10:29:50;23.30;;;8.65;;
19482;SDS011;9882;51.166;6.992;2023-06-01T10:38:30;23.00;;;8.32;;
19482;SDS011;9882;51.166;6.992;2023-06-01T10:43:54;25.13;;;9.02;;
19482;SDS011;9882;51.166;6.992;2023-06-01T10:46:42;23.80;;;7.90;;
19482;SDS011;9882;51.166;6.992;2023-06-01T10:49:11;20.70;;;7.55;;
19482;SDS011;9882;51.166;6.992;2023-06-01T10:51:39;29.95;;;7.50;;
19482;SDS011;9882;51.166;6.992;2023-06-01T10:57:17;18.95;;;7.22;;
19482;SDS011;9882;51.166;6.992;2023-06-01T11:00:08;22.70;;;7.85;;
19482;SDS011;9882;51.166;6.992;2023-06-01T11:02:53;22.08;;;7.85;;
19482;SDS011;9882;51.166;6.992;2023-06-01T11:05:33;27.80;;;8.48;;
19482;SDS011;9882;51.166;6.992;2023-06-01T11:08:03;21.38;;;6.82;;
19482;SDS011;9882;51.166;6.992;2023-06-01T11:13:30;19.75;;;6.95;;
19482;SDS011;9882;51.166;6.992;2023-06-01T11:19:04;25.05;;;8.35;;
19482;SDS011;9882;51.166;6.992;2023-06-01T11:21:39;31.23;;;7.82;;
19482;SDS011;9882;51.166;6.992;2023-06-01T11:24:12;23.00;;;6.63;;
19482;SDS011;9882;51.166;6.992;2023-06-01T11:26:43;27.75;;;8.32;;
19482;SDS011;9882;51.166;6.992;2023-06-01T11:29:22;35.03;;;9.35;;
19482;SDS011;9882;51.166;6.992;2023-06-01T11:31:52;25.00;;;7.72;;
19482;SDS011;9882;51.166;6.992;2023-06-01T11:34:26;29.33;;;9.18;;
19482;SDS011;9882;51.166;6.992;2023-06-01T11:37:00;38.63;;;10.70;;
19482;SDS011;9882;51.166;6.992;2023-06-01T11:39:30;25.90;;;8.73;;
19482;SDS011;9882;51.166;6.992;2023-06-01T11:42:07;28.15;;;9.63;;
19482;SDS011;9882;51.166;6.992;2023-06-01T11:44:37;27.10;;;8.18;;
19482;SDS011;9882;51.166;6.992;2023-06-01T11:47:07;37.63;;;9.13;;
19482;SDS011;9882;51.166;6.992;2023-06-01T11:49:40;27.02;;;8.35;;
19482;SDS011;9882;51.166;6.992;2023-06-01T11:52:10;22.50;;;8.63;;
19482;SDS011;9882;51.166;6.992;2023-06-01T11:54:39;24.25;;;9.45;;
19482;SDS011;9882;51.166;6.992;2023-06-01T11:57:10;32.13;;;11.10;;
19482;SDS011;9882;51.166;6.992;2023-06-01T11:59:39;43.05;;;11.88;;
19482;SDS011;9882;51.166;6.992;2023-06-01T12:02:17;30.90;;;10.15;;
19482;SDS011;9882;51.166;6.992;2023-06-01T12:04:55;30.73;;;10.48;;
19482;SDS011;9882;51.166;6.992;2023-06-01T12:07:24;34.22;;;11.60;;
19482;SDS011;9882;51.166;6.992;2023-06-01T12:09:54;35.47;;;12.25;;
19482;SDS011;9882;51.166;6.992;2023-06-01T12:12:25;33.42;;;11.43;;
19482;SDS011;9882;51.166;6.992;2023-06-01T12:14:56;31.85;;;10.45;;
19482;SDS011;9882;51.166;6.992;2023-06-01T12:17:24;37.53;;;12.13;;
19482;SDS011;9882;51.166;6.992;2023-06-01T12:20:09;34.30;;;11.27;;
19482;SDS011;9882;51.166;6.992;2023-06-01T12:22:39;31.42;;;11.30;;
19482;SDS011;9882;51.166;6.992;2023-06-01T12:25:08;28.75;;;10.23;;
19482;SDS011;9882;51.166;6.992;2023-06-01T12:27:38;28.63;;;11.10;;
19482;SDS011;9882;51.166;6.992;2023-06-01T12:30:19;31.40;;;11.70;;
19482;SDS011;9882;51.166;6.992;2023-06-01T12:32:50;32.90;;;9.93;;
19482;SDS011;9882;51.166;6.992;2023-06-01T12:35:18;27.10;;;9.23;;
19482;SDS011;9882;51.166;6.992;2023-06-01T12:38:02;29.05;;;9.55;;
19482;SDS011;9882;51.166;6.992;2023-06-01T12:40:33;25.92;;;8.32;;
19482;SDS011;9882;51.166;6.992;2023-06-01T12:43:05;31.15;;;8.63;;
19482;SDS011;9882;51.166;6.992;2023-06-01T12:45:47;29.05;;;9.35;;
19482;SDS011;9882;51.166;6.992;2023-06-01T12:48:31;25.65;;;8.52;;
19482;SDS011;9882;51.166;6.992;2023-06-01T12:51:00;24.83;;;8.15;;
19482;SDS011;9882;51.166;6.992;2023-06-01T12:53:30;25.60;;;8.73;;
19482;SDS011;9882;51.166;6.992;2023-06-01T12:55:58;31.40;;;8.60;;
19482;SDS011;9882;51.166;6.992;2023-06-01T12:58:28;23.45;;;8.23;;
19482;SDS011;9882;51.166;6.992;2023-06-01T13:00:56;27.92;;;8.43;;
19482;SDS011;9882;51.166;6.992;2023-06-01T13:03:25;23.23;;;7.80;;
19482;SDS011;9882;51.166;6.992;2023-06-01T13:05:54;24.35;;;8.55;;
19482;SDS011;9882;51.166;6.992;2023-06-01T13:08:23;31.75;;;8.52;;
19482;SDS011;9882;51.166;6.992;2023-06-01T13:10:52;27.35;;;8.65;;
19482;SDS011;9882;51.166;6.992;2023-06-01T13:13:21;29.05;;;8.88;;
19482;SDS011;9882;51.166;6.992;2023-06-01T13:15:51;21.80;;;7.30;;
19482;SDS011;9882;51.166;6.992;2023-06-01T13:18:20;32.55;;;9.40;;
19482;SDS011;9882;51.166;6.992;2023-06-01T13:20:49;30.70;;;9.00;;
19482;SDS011;9882;51.166;6.992;2023-06-01T13:23:18;29.08;;;9.02;;
19482;SDS011;9882;51.166;6.992;2023-06-01T13:25:46;27.67;;;9.13;;
19482;SDS011;9882;51.166;6.992;2023-06-01T13:28:15;26.58;;;7.15;;
19482;SDS011;9882;51.166;6.992;2023-06-01T13:30:44;19.60;;;6.68;;
19482;SDS011;9882;51.166;6.992;2023-06-01T13:33:14;26.80;;;8.30;;
19482;SDS011;9882;51.166;6.992;2023-06-01T13:35:42;28.25;;;8.50;;
19482;SDS011;9882;51.166;6.992;2023-06-01T13:38:14;26.55;;;7.82;;
19482;SDS011;9882;51.166;6.992;2023-06-01T13:40:43;32.30;;;8.55;;
19482;SDS011;9882;51.166;6.992;2023-06-01T13:43:12;20.38;;;6.60;;
19482;SDS011;9882;51.166;6.992;2023-06-01T13:45:41;19.63;;;5.97;;
19482;SDS011;9882;51.166;6.992;2023-06-01T13:48:09;28.67;;;7.85;;
19482;SDS011;9882;51.166;6.992;2023-06-01T13:50:40;16.23;;;5.88;;
19482;SDS011;9882;51.166;6.992;2023-06-01T13:53:08;20.90;;;5.90;;
19482;SDS011;9882;51.166;6.992;2023-06-01T13:55:37;20.13;;;6.28;;
19482;SDS011;9882;51.166;6.992;2023-06-01T13:58:06;24.35;;;6.95;;
19482;SDS011;9882;51.166;6.992;2023-06-01T14:00:35;19.88;;;5.80;;
19482;SDS011;9882;51.166;6.992;2023-06-01T14:03:03;17.42;;;5.65;;
19482;SDS011;9882;51.166;6.992;2023-06-01T14:05:32;22.90;;;6.97;;
19482;SDS011;9882;51.166;6.992;2023-06-01T14:08:07;19.50;;;6.97;;
19482;SDS011;9882;51.166;6.992;2023-06-01T14:10:35;20.40;;;6.93;;
19482;SDS011;9882;51.166;6.992;2023-06-01T14:13:04;21.27;;;6.03;;
19482;SDS011;9882;51.166;6.992;2023-06-01T14:15:32;19.88;;;6.57;;
19482;SDS011;9882;51.166;6.992;2023-06-01T14:18:01;21.58;;;6.15;;
19482;SDS011;9882;51.166;6.992;2023-06-01T14:20:30;18.85;;;5.57;;
19482;SDS011;9882;51.166;6.992;2023-06-01T14:22:59;19.13;;;5.50;;
19482;SDS011;9882;51.166;6.992;2023-06-01T14:25:31;23.13;;;6.35;;
19482;SDS011;9882;51.166;6.992;2023-06-01T14:27:59;26.38;;;6.20;;
19482;SDS011;9882;51.166;6.992;2023-06-01T14:30:28;22.40;;;5.72;;
19482;SDS011;9882;51.166;6.992;2023-06-01T14:32:57;22.33;;;7.38;;
19482;SDS011;9882;51.166;6.992;2023-06-01T14:35:26;15.63;;;5.28;;
19482;SDS011;9882;51.166;6.992;2023-06-01T14:37:54;20.20;;;4.93;;
19482;SDS011;9882;51.166;6.992;2023-06-01T14:40:23;18.27;;;4.97;;
19482;SDS011;9882;51.166;6.992;2023-06-01T14:42:53;14.45;;;5.55;;
19482;SDS011;9882;51.166;6.992;2023-06-01T14:45:23;17.23;;;5.78;;
19482;SDS011;9882;51.166;6.992;2023-06-01T14:47:53;18.63;;;5.90;;
19482;SDS011;9882;51.166;6.992;2023-06-01T14:50:22;23.77;;;6.13;;
19482;SDS011;9882;51.166;6.992;2023-06-01T14:52:51;22.05;;;6.10;;
19482;SDS011;9882;51.166;6.992;2023-06-01T14:55:27;19.65;;;6.57;;
19482;SDS011;9882;51.166;6.992;2023-06-01T14:57:57;16.95;;;5.72;;
19482;SDS011;9882;51.166;6.992;2023-06-01T15:00:26;16.67;;;5.95;;
19482;SDS011;9882;51.166;6.992;2023-06-01T15:02:55;20.13;;;6.05;;
19482;SDS011;9882;51.166;6.992;2023-06-01T15:05:26;18.60;;;6.72;;
19482;SDS011;9882;51.166;6.992;2023-06-01T15:07:55;21.08;;;6.13;;
19482;SDS011;9882;51.166;6.992;2023-06-01T15:17:58;19.00;;;5.65;;
19482;SDS011;9882;51.166;6.992;2023-06-01T15:20:27;18.67;;;6.00;;
19482;SDS011;9882;51.166;6.992;2023-06-01T15:22:57;18.60;;;6.15;;
19482;SDS011;9882;51.166;6.992;2023-06-01T15:25:26;16.13;;;5.25;;
19482;SDS011;9882;51.166;6.992;2023-06-01T15:27:54;17.40;;;5.60;;
19482;SDS011;9882;51.166;6.992;2023-06-01T15:30:23;17.60;;;4.75;;